createdAt,value
2019-04-11T13:04:44.307Z,35.4284
2019-04-11T13:04:47.289Z,35.0332
2019-04-11T13:04:49.594Z,35.4467
2019-04-11T13:04:51.885Z,34.6532
2019-04-11T13:04:54.195Z,34.9111
2019-04-11T13:04:56.540Z,34.5907
2019-04-11T13:04:58.845Z,35.1034
2019-04-11T13:05:21.094Z,33.0983
2019-04-11T13:05:36.967Z,32.7367
2019-04-11T13:05:53.774Z,32.6543
2019-04-11T13:06:10.826Z,32.5566
2019-04-11T13:06:35.393Z,32.9931
2019-04-11T13:06:48.769Z,34.0185
2019-04-11T13:07:04.954Z,33.8476
2019-04-11T13:07:21.798Z,32.5521
2019-04-11T13:07:38.876Z,33.2204
2019-04-11T13:07:56.031Z,34.7967
2019-04-11T13:08:12.940Z,32.6635
2019-04-11T13:08:35.174Z,32.4468
2019-04-11T13:08:51.933Z,34.9371
2019-04-11T13:09:08.940Z,32.3980
2019-04-11T13:09:50.346Z,33.1380
2019-04-11T13:10:07.042Z,32.1355
2019-04-11T13:10:24.153Z,32.0714
2019-04-11T13:10:40.991Z,32.3476
2019-04-11T13:10:58.127Z,32.7962
2019-04-11T13:23:18.648Z,55.3613
2019-04-11T13:23:46.135Z,55.1583
2019-04-11T13:23:52.911Z,52.8466
2019-04-11T13:23:59.892Z,51.7067
2019-04-11T13:32:22.869Z,36.3699
2019-04-11T13:32:29.630Z,41.8143
2019-04-11T13:32:36.544Z,43.2334
2019-04-11T13:32:43.599Z,41.6403
2019-04-11T13:32:50.576Z,40.1587
2019-04-11T13:32:57.589Z,39.2782
2019-04-11T13:33:04.588Z,38.7259
2019-04-11T13:33:11.557Z,38.3230
2019-04-11T13:33:18.569Z,38.0377
2019-04-11T13:33:25.686Z,37.8698
2019-04-11T13:33:32.569Z,37.7325
2019-04-11T13:33:39.575Z,37.7218
2019-04-11T13:33:46.554Z,37.6593
2019-04-11T13:33:53.578Z,37.6501
2019-04-11T13:34:00.589Z,37.6486
2019-04-11T13:34:07.566Z,37.5708
2019-04-11T13:34:14.579Z,38.2086
2019-04-11T13:34:21.590Z,38.3597
2019-04-11T13:34:27.699Z,38.1338
2019-04-11T13:34:34.597Z,37.8973
2019-04-11T13:34:41.554Z,37.7325
2019-04-11T13:34:48.607Z,37.6577
2019-04-11T13:34:55.591Z,37.6486
2019-04-11T13:35:02.574Z,37.5952
2019-04-11T13:35:09.597Z,37.5937
2019-04-11T13:35:16.587Z,37.5341
2019-04-11T13:35:23.597Z,37.5357
2019-04-11T13:35:30.675Z,38.6740
2019-04-11T13:35:37.583Z,38.4863
2019-04-11T13:35:44.578Z,38.2452
2019-04-11T13:35:51.587Z,38.0209
2019-04-11T13:35:58.552Z,37.8958
2019-04-11T13:36:05.582Z,37.7691
2019-04-11T13:36:12.582Z,37.7829
2019-04-11T13:36:19.538Z,37.8225
2019-04-11T13:36:26.588Z,37.7188
2019-04-11T13:36:33.635Z,37.6822
2019-04-11T13:36:39.578Z,37.7188
2019-04-11T13:36:46.559Z,37.7325
2019-04-11T13:36:53.781Z,37.6959
2019-04-11T13:36:59.581Z,37.6577
2019-04-11T13:37:06.616Z,37.6715
2019-04-11T13:37:13.574Z,37.6364
2019-04-11T13:37:20.529Z,37.6226
2019-04-11T13:37:27.595Z,37.6181
2019-04-11T13:37:34.664Z,39.0326
2019-04-11T13:37:41.591Z,47.2084
2019-04-11T13:37:48.569Z,53.5378
2019-04-11T13:37:55.559Z,57.9232
2019-04-11T13:38:02.560Z,60.7431
2019-04-11T13:38:09.601Z,62.7771
2019-04-11T13:38:17.355Z,64.2771
2019-04-11T13:38:24.589Z,65.4826
2019-04-11T13:38:31.597Z,66.3340
2019-04-11T13:38:38.653Z,66.9093
2019-04-11T13:38:45.526Z,67.2999
2019-04-11T13:38:52.553Z,67.4784
2019-04-11T13:39:02.323Z,67.1946
2019-04-11T13:39:09.557Z,65.7557
2019-04-11T13:39:16.571Z,64.3549
2019-04-11T13:39:23.567Z,62.6245
2019-04-11T13:39:30.569Z,60.8759
2019-04-11T13:39:37.588Z,59.3195
2019-04-11T13:39:46.572Z,57.9065
2019-04-11T13:39:53.619Z,56.3394
2019-04-11T13:40:00.579Z,55.4253
2019-04-11T13:40:07.598Z,54.5815
2019-04-11T13:40:14.560Z,53.9406
2019-04-11T13:40:21.588Z,53.4066
2019-04-11T13:40:28.581Z,52.9793
2019-04-11T13:40:35.630Z,52.6406
2019-04-11T13:40:42.580Z,52.3384
2019-04-11T13:40:49.640Z,52.1248
2019-04-11T13:40:56.602Z,51.8853
2019-04-11T13:41:03.604Z,51.7067
2019-04-11T13:41:10.645Z,51.5480
2019-04-11T13:41:19.988Z,51.3909
2019-04-11T13:41:26.649Z,51.1818
2019-04-11T13:41:33.577Z,51.0842
2019-04-11T13:41:40.560Z,51.0124
2019-04-11T13:41:47.625Z,50.9071
2019-04-11T13:41:54.672Z,50.8247
2019-04-11T13:42:01.598Z,50.7820
2019-04-11T13:42:08.632Z,50.6996
2019-04-11T13:42:15.591Z,50.6554
2019-04-11T13:42:22.617Z,50.5913
2019-04-11T13:42:29.649Z,50.5592
2019-04-11T13:42:36.602Z,50.5089
2019-04-11T13:42:43.586Z,50.4799
2019-04-11T13:42:50.580Z,50.4524
2019-04-11T13:42:57.720Z,50.4219
2019-04-11T13:43:04.565Z,50.3929
2019-04-11T13:58:17.738Z,48.7785
2019-04-11T13:58:25.137Z,48.7282
2019-04-11T13:58:32.150Z,48.6595
2019-04-11T13:58:39.127Z,48.6915
2019-04-11T13:58:46.189Z,48.6580
2019-04-11T13:58:53.159Z,48.6320
2019-04-11T13:59:00.125Z,48.5939
2019-04-11T13:59:07.118Z,48.6091
2019-04-11T13:59:14.083Z,48.5939
2019-04-11T13:59:20.235Z,48.6168
2019-04-11T13:59:27.154Z,48.5725
2019-04-11T13:59:34.135Z,48.5756
2019-04-11T13:59:40.167Z,48.5496
2019-04-11T13:59:47.115Z,48.5130
2019-04-11T13:59:54.115Z,48.5756
2019-04-11T14:00:01.157Z,48.5390
2019-04-11T14:00:08.105Z,48.5618
2019-04-11T14:00:15.143Z,48.5634
2019-04-11T14:00:22.194Z,48.5527
2019-04-11T14:00:29.138Z,48.5176
2019-04-11T14:00:36.144Z,48.5176
2019-04-11T14:00:43.145Z,48.5664
2019-04-11T14:00:50.142Z,48.5405
2019-04-11T14:00:57.168Z,48.5573
2019-04-11T14:01:04.165Z,48.5802
2019-04-11T14:01:11.215Z,48.5893
2019-04-11T14:01:18.151Z,48.6122
2019-04-11T14:01:25.243Z,48.5893
2019-04-11T14:01:32.146Z,48.5573
2019-04-11T14:01:39.141Z,48.5802
2019-04-11T14:01:45.126Z,48.6168
2019-04-11T14:01:52.213Z,48.6397
2019-04-11T14:01:59.142Z,48.6625
2019-04-11T14:02:06.132Z,48.6534
2019-04-11T14:02:13.123Z,48.6534
2019-04-11T14:02:20.088Z,48.6580
2019-04-11T14:02:27.209Z,48.7221
2019-04-11T14:02:34.142Z,48.7144
2019-04-11T14:02:50.620Z,48.7236
2019-04-11T14:02:53.160Z,48.7968
2019-04-11T14:03:00.189Z,48.7739
2019-04-11T14:03:07.130Z,48.8197
2019-04-11T14:03:14.111Z,48.8197
2019-04-11T14:03:21.155Z,48.8563
2019-04-11T14:03:27.188Z,48.8792
2019-04-11T14:03:34.135Z,48.8655
2019-04-11T14:03:41.154Z,48.8685
2019-04-11T14:03:48.138Z,48.8685
2019-04-11T14:03:55.200Z,48.8685
2019-04-11T14:04:02.131Z,48.9281
2019-04-11T14:04:09.096Z,48.9342
2019-04-11T14:04:16.131Z,48.9845
2019-04-11T14:04:23.118Z,48.9967
2019-04-11T14:04:30.190Z,49.0074
2019-04-11T14:04:38.604Z,49.0425
2019-04-11T14:04:46.187Z,49.0669
2019-04-11T14:04:54.474Z,49.0578
2019-04-11T14:05:02.204Z,49.1020
2019-04-11T14:05:10.682Z,49.0669
2019-04-11T14:05:17.148Z,49.1127
2019-04-11T14:05:24.261Z,49.1035
2019-04-11T14:05:31.220Z,49.1386
2019-04-11T14:05:38.087Z,49.1020
2019-04-11T14:05:45.113Z,49.1157
2019-04-11T14:05:52.176Z,49.1844
2019-04-11T14:05:59.212Z,49.1859
2019-04-11T14:06:06.150Z,49.1615
2019-04-11T14:06:13.170Z,49.2210
2019-04-11T14:06:20.111Z,49.1844
2019-04-11T14:06:27.164Z,49.2760
2019-04-11T14:06:34.244Z,49.2409
2019-04-11T14:06:41.138Z,49.2760
2019-04-11T14:06:48.164Z,49.3126
2019-04-11T14:06:55.163Z,49.2638
2019-04-11T14:07:02.166Z,49.2500
2019-04-11T14:07:09.149Z,49.2760
2019-04-11T14:07:16.082Z,49.3446
2019-04-11T14:07:23.622Z,49.3263
2019-04-11T14:07:31.099Z,49.3584
2019-04-11T14:07:38.210Z,49.3584
2019-04-11T14:07:45.110Z,49.4057
2019-04-11T14:07:52.111Z,49.4148
2019-04-11T14:07:59.145Z,49.4743
2019-04-11T14:08:06.177Z,49.4041
2019-04-11T14:08:13.117Z,49.4148
2019-04-11T14:08:20.170Z,49.4499
2019-04-11T14:08:27.177Z,49.4377
2019-04-11T14:08:34.163Z,49.4636
2019-04-11T14:08:41.220Z,49.4514
2019-04-11T14:08:48.135Z,49.4865
2019-04-11T14:08:55.145Z,49.5201
2019-04-11T14:09:02.144Z,49.4972
2019-04-11T14:22:17.628Z,45.9022
2019-04-11T14:22:28.916Z,46.0868
2019-04-11T14:22:36.302Z,46.2226
2019-04-11T14:22:43.591Z,46.3233
2019-04-11T14:22:51.255Z,46.3890
2019-04-11T14:22:57.283Z,46.4576
2019-04-11T14:23:04.329Z,46.4973
2019-04-11T14:23:13.805Z,46.5629
2019-04-11T14:23:22.504Z,46.6178
2019-04-11T14:23:29.266Z,46.6270
2019-04-11T14:23:36.299Z,46.6667
2019-04-11T14:23:43.331Z,46.6545
2019-04-11T14:23:50.288Z,46.6667
2019-04-11T14:23:57.310Z,46.7185
2019-04-11T14:24:04.265Z,46.6911
2019-04-11T14:24:11.586Z,46.7231
2019-04-11T14:24:19.270Z,46.7460
2019-04-11T14:24:26.332Z,46.7399
2019-04-11T14:24:33.254Z,46.7674
2019-04-11T14:24:41.790Z,46.7308
2019-04-11T14:24:49.295Z,46.7689
2019-04-11T14:24:56.356Z,46.7720
2019-04-11T14:25:03.291Z,46.7643
2019-04-11T14:25:13.499Z,46.8376
2019-04-11T14:25:22.281Z,46.8452
2019-04-11T14:25:29.350Z,46.8788
2019-04-11T14:25:36.241Z,46.8833
2019-04-11T14:25:43.275Z,46.9474
2019-04-11T14:25:49.301Z,46.8971
2019-04-11T14:25:56.301Z,46.9871
2019-04-11T14:26:03.276Z,47.0603
2019-04-11T14:26:10.263Z,47.0848
2019-04-11T14:26:17.262Z,47.0756
2019-04-11T14:26:24.294Z,47.1260
2019-04-11T14:26:31.320Z,47.1626
2019-04-11T14:26:38.282Z,47.1855
2019-04-11T14:26:45.297Z,47.2251
2019-04-11T14:26:51.288Z,47.2755
2019-04-11T14:26:58.262Z,47.2938
2019-04-11T14:27:05.313Z,47.3121
2019-04-11T14:27:12.281Z,47.3487
2019-04-11T14:27:19.343Z,47.3823
2019-04-11T14:27:26.281Z,47.5059
2019-04-11T14:27:33.374Z,47.4922
2019-04-11T14:27:40.288Z,47.5776
2019-04-11T14:27:47.332Z,47.5868
2019-04-11T14:27:54.300Z,47.6341
2019-04-11T14:28:01.270Z,47.6341
2019-04-11T14:28:08.357Z,47.6478
2019-04-11T14:28:15.274Z,47.7302
2019-04-11T14:28:22.326Z,47.7012
2019-04-11T14:28:28.288Z,47.7211
2019-04-11T14:28:35.314Z,47.7836
2019-04-11T14:28:42.303Z,47.7928
2019-04-11T14:28:49.294Z,47.8202
2019-04-11T14:28:56.246Z,47.8675
2019-04-11T14:29:03.242Z,47.8798
2019-04-11T14:29:10.330Z,47.8798
2019-04-11T14:29:17.303Z,48.0003
2019-04-11T14:29:24.261Z,47.9637
2019-04-11T14:29:31.271Z,47.9988
2019-04-11T14:29:38.348Z,48.0461
2019-04-11T14:29:45.260Z,48.0491
2019-04-11T14:29:52.281Z,48.0583
2019-04-11T14:29:59.291Z,48.0949
2019-04-11T14:30:06.317Z,48.1193
2019-04-11T14:30:12.295Z,48.1682
2019-04-11T14:30:19.341Z,48.1331
2019-04-11T14:30:26.282Z,48.1788
2019-04-11T14:30:33.278Z,48.1636
2019-04-11T14:30:40.352Z,48.2185
2019-04-11T14:30:51.645Z,48.2506
2019-04-11T14:30:59.304Z,48.2734
2019-04-11T14:31:06.314Z,48.3192
2019-04-11T14:31:12.280Z,48.2887
2019-04-11T14:31:21.957Z,48.3116
2019-04-11T14:31:29.303Z,48.3345
2019-04-11T14:31:36.292Z,48.3711
2019-04-11T14:31:43.372Z,48.4077
2019-04-11T14:31:50.867Z,48.4215
2019-04-11T14:32:00.246Z,48.4672
2019-04-11T14:32:07.277Z,48.4810
2019-04-11T14:32:14.290Z,48.5390
2019-04-11T14:32:23.184Z,48.5298
2019-04-11T14:32:30.280Z,48.5954
2019-04-11T14:32:37.295Z,48.5863
2019-04-11T14:32:44.315Z,48.5756
2019-04-11T14:32:51.766Z,48.5954
2019-04-11T14:33:01.238Z,48.6366
2019-04-11T14:33:08.264Z,48.6717
2019-04-11T14:33:15.311Z,48.6458
2019-04-11T14:33:25.184Z,48.6580
2019-04-11T14:33:34.294Z,48.6809
2019-04-11T14:33:41.282Z,48.7449
2019-04-11T14:33:48.332Z,48.7175
2019-04-11T14:33:55.964Z,48.7266
2019-04-11T14:34:03.285Z,48.7282
2019-04-11T14:34:10.265Z,48.7907
2019-04-11T14:34:16.235Z,48.7816
2019-04-11T14:34:23.283Z,48.8045
2019-04-11T14:34:30.305Z,48.8365
2019-04-11T14:34:37.284Z,48.8365
2019-04-11T14:34:44.273Z,48.8182
2019-04-11T14:34:51.397Z,48.8472
2019-04-11T14:34:58.307Z,48.8518
2019-04-11T14:35:05.307Z,48.8609
2019-04-11T14:35:12.253Z,48.8746
2019-04-11T14:35:19.316Z,48.8594
2019-04-11T14:35:26.301Z,48.8975
2019-04-11T14:35:33.288Z,48.8975
2019-04-11T14:35:39.266Z,48.8869
2019-04-11T14:35:46.312Z,48.9326
2019-04-11T14:35:53.337Z,48.8869
2019-04-11T14:36:00.299Z,48.9693
2019-04-11T14:36:07.282Z,49.0196
2019-04-11T14:36:14.277Z,48.9830
2019-04-11T14:36:32.601Z,48.9204
2019-04-11T14:36:33.957Z,48.9830
2019-04-11T14:36:41.297Z,49.0303
2019-04-11T14:36:48.312Z,49.0517
2019-04-11T14:36:55.359Z,49.0425
2019-04-11T14:37:02.274Z,49.0761
